Terminal Aerodrome Forecast
Issued by NWS Sterling, VA

Home | Current Version | Previous Version | Text Only | Print | Product List | Glossary On
Versions: 1 2 3 4 5 6 7 8 9 10 11 12 13 14 15 16 17 18 19 20 21 22 23 24 25 26 27 28
000
FTUS41 KLWX 191720
TAFBWI
TAF
KBWI 191720Z 1918/2024 29006KT P6SM SCT025 BKN200
     FM192300 29004KT P6SM FEW025 SCT250
     FM200600 VRB03KT P6SM SCT020 BKN100
     FM201400 12004KT P6SM -RA SCT003 OVC025
     FM201900 14006KT 2SM -RA SCT003 OVC008
     FM202200 14005KT P6SM SCT003 OVC008=

USA.gov is the U.S. government's official web portal to all federal, state and local government web resources and services.